createdAt,value
2023-05-05T00:01:37.456Z,61.89
2023-05-05T00:04:04.654Z,61.93
2023-05-05T00:06:31.611Z,61.77
2023-05-05T00:08:58.499Z,62.04
2023-05-05T00:11:26.150Z,61.96
2023-05-05T00:13:53.118Z,61.76
2023-05-05T00:16:20.090Z,61.55
2023-05-05T00:18:47.447Z,61.61
2023-05-05T00:21:14.359Z,61.84
2023-05-05T00:23:41.465Z,61.82
2023-05-05T00:26:08.235Z,61.95
2023-05-05T00:28:35.084Z,61.86
2023-05-05T00:31:01.978Z,62.22
2023-05-05T00:33:28.902Z,62.16
2023-05-05T00:35:55.580Z,62.30
2023-05-05T00:38:22.243Z,62.61
2023-05-05T00:40:48.890Z,62.61
2023-05-05T00:43:15.499Z,62.73
2023-05-05T00:45:44.674Z,62.69
2023-05-05T00:48:11.653Z,62.84
2023-05-05T00:50:38.795Z,62.70
2023-05-05T00:53:06.915Z,62.68
2023-05-05T00:55:35.055Z,62.63
2023-05-05T00:58:03.327Z,62.50
2023-05-05T01:00:31.534Z,62.65
2023-05-05T01:02:59.715Z,62.41
2023-05-05T01:05:38.003Z,62.86
2023-05-05T01:08:29.305Z,63.27
2023-05-05T01:11:03.220Z,63.33
2023-05-05T01:13:53.961Z,63.16
2023-05-05T01:16:25.851Z,63.01
2023-05-05T01:19:08.027Z,62.97
2023-05-05T01:22:19.000Z,62.86
2023-05-05T01:25:23.096Z,63.09
2023-05-05T01:28:23.644Z,63.14
2023-05-05T01:31:03.504Z,63.27
2023-05-05T01:33:36.953Z,63.34
2023-05-05T01:36:12.034Z,63.34
2023-05-05T01:38:42.339Z,63.47
2023-05-05T01:41:18.373Z,63.28
2023-05-05T01:43:50.310Z,63.23
2023-05-05T01:46:19.680Z,63.42
2023-05-05T01:48:48.324Z,63.31
2023-05-05T01:51:17.866Z,63.15
2023-05-05T01:53:47.359Z,63.65
2023-05-05T01:56:15.943Z,63.33
2023-05-05T01:58:45.390Z,63.33
2023-05-05T02:01:13.829Z,63.78
2023-05-05T02:03:42.115Z,63.55
2023-05-05T02:06:11.709Z,63.59
2023-05-05T02:08:41.007Z,63.54
2023-05-05T02:11:10.654Z,63.50
2023-05-05T02:13:39.356Z,63.53
2023-05-05T02:16:07.107Z,63.53
2023-05-05T02:18:36.269Z,63.45
2023-05-05T02:21:03.961Z,63.66
2023-05-05T02:23:31.026Z,63.82
2023-05-05T02:26:04.826Z,63.96
2023-05-05T02:29:03.360Z,63.79
2023-05-05T02:31:32.729Z,63.68
2023-05-05T02:34:01.947Z,63.82
2023-05-05T02:36:37.797Z,63.74
2023-05-05T02:39:12.732Z,63.97
2023-05-05T02:41:43.055Z,63.97
2023-05-05T02:44:19.868Z,64.18
2023-05-05T02:46:47.391Z,64.07
2023-05-05T02:49:15.591Z,64.15
2023-05-05T02:51:42.933Z,63.97
2023-05-05T02:54:18.181Z,64.07
2023-05-05T02:56:51.048Z,64.11
2023-05-05T02:59:34.296Z,63.86
2023-05-05T03:02:11.601Z,64.01
2023-05-05T03:04:39.696Z,63.99
2023-05-05T03:07:12.376Z,64.08
2023-05-05T03:10:06.431Z,64.00
2023-05-05T03:12:56.807Z,64.06
2023-05-05T03:15:32.658Z,64.17
2023-05-05T03:18:02.028Z,64.07
2023-05-05T03:20:30.496Z,64.04
2023-05-05T03:22:57.849Z,63.87
2023-05-05T03:25:43.720Z,64.07
2023-05-05T03:28:11.630Z,64.05
2023-05-05T03:30:38.603Z,64.06
2023-05-05T03:33:05.661Z,63.97
2023-05-05T03:35:32.877Z,63.86
2023-05-05T03:37:59.633Z,63.94
2023-05-05T03:40:36.220Z,64.24
2023-05-05T03:43:08.772Z,63.96
2023-05-05T03:45:37.732Z,63.98
2023-05-05T03:48:05.050Z,63.92
2023-05-05T03:50:32.803Z,63.97
2023-05-05T03:52:59.600Z,64.18
2023-05-05T03:55:26.811Z,64.18
2023-05-05T03:57:53.804Z,64.58
2023-05-05T04:00:20.622Z,64.67
2023-05-05T04:02:47.915Z,64.60
2023-05-05T04:05:14.785Z,64.72
2023-05-05T04:07:41.833Z,64.75
2023-05-05T04:10:09.951Z,64.61
2023-05-05T04:12:36.789Z,64.69
2023-05-05T04:15:03.807Z,64.82
2023-05-05T04:17:31.554Z,64.93
2023-05-05T04:19:58.877Z,65.01
2023-05-05T04:22:25.820Z,64.98
2023-05-05T04:24:52.734Z,64.95
2023-05-05T04:27:19.843Z,65.24
2023-05-05T04:29:47.655Z,65.15
2023-05-05T04:32:14.445Z,65.10
2023-05-05T04:34:41.828Z,65.26
2023-05-05T04:37:08.649Z,65.39
2023-05-05T04:39:35.491Z,65.24
2023-05-05T04:42:04.937Z,65.23
2023-05-05T04:44:31.906Z,65.26
2023-05-05T04:47:00.809Z,65.13
2023-05-05T04:49:32.918Z,65.27
2023-05-05T04:51:59.913Z,65.46
2023-05-05T04:54:27.903Z,65.26
2023-05-05T04:56:54.641Z,65.09
2023-05-05T04:59:21.401Z,65.23
2023-05-05T05:01:48.950Z,65.63
2023-05-05T05:04:18.674Z,65.43
2023-05-05T05:06:46.870Z,65.50
2023-05-05T05:09:13.729Z,65.37
2023-05-05T05:11:40.444Z,65.51
2023-05-05T05:14:07.883Z,65.49
2023-05-05T05:16:34.902Z,65.65
2023-05-05T05:19:02.088Z,65.50
2023-05-05T05:21:29.966Z,65.43
2023-05-05T05:23:56.947Z,65.35
2023-05-05T05:26:24.384Z,65.11
2023-05-05T05:28:51.948Z,65.17
2023-05-05T05:31:19.980Z,64.73
2023-05-05T05:33:46.958Z,64.60
2023-05-05T05:36:13.945Z,64.92
2023-05-05T05:38:40.929Z,64.66
2023-05-05T05:41:07.987Z,64.47
2023-05-05T05:43:35.267Z,64.75
2023-05-05T05:46:04.009Z,64.48
2023-05-05T05:48:31.119Z,64.18
2023-05-05T05:50:58.299Z,64.23
2023-05-05T05:53:25.953Z,64.05
2023-05-05T05:55:53.954Z,63.83
2023-05-05T05:58:20.959Z,63.85
2023-05-05T06:00:49.054Z,63.88
2023-05-05T06:03:15.949Z,63.87
2023-05-05T06:05:44.940Z,63.95
2023-05-05T06:08:12.998Z,63.59
2023-05-05T06:10:43.984Z,63.50
2023-05-05T06:13:15.150Z,63.45
2023-05-05T06:15:45.049Z,63.31
2023-05-05T06:18:12.643Z,63.22
2023-05-05T06:20:39.980Z,63.32
2023-05-05T06:23:07.180Z,63.36
2023-05-05T06:25:37.016Z,63.44
2023-05-05T06:28:05.675Z,63.82
2023-05-05T06:30:33.034Z,63.97
2023-05-05T06:33:00.054Z,63.91
2023-05-05T06:35:26.885Z,63.85
2023-05-05T06:37:53.988Z,63.41
2023-05-05T06:40:22.048Z,63.01
2023-05-05T06:42:49.024Z,62.75
2023-05-05T06:45:20.493Z,62.23
2023-05-05T06:47:47.237Z,61.82
2023-05-05T06:50:14.061Z,61.43
2023-05-05T06:52:41.356Z,60.90
2023-05-05T06:55:09.120Z,60.44
2023-05-05T06:57:36.580Z,59.71
2023-05-05T07:00:06.158Z,59.37
2023-05-05T07:02:33.802Z,59.34
2023-05-05T07:05:01.094Z,58.93
2023-05-05T07:07:27.792Z,58.48
2023-05-05T07:09:54.477Z,57.60
2023-05-05T07:12:22.072Z,57.41
2023-05-05T07:14:49.140Z,56.61
2023-05-05T07:17:16.100Z,56.11
2023-05-05T07:19:43.230Z,55.70
2023-05-05T07:22:10.077Z,54.55
2023-05-05T07:24:36.868Z,54.35
2023-05-05T07:27:03.552Z,53.36
2023-05-05T07:29:32.131Z,52.56
2023-05-05T07:31:58.807Z,52.33
2023-05-05T07:34:26.151Z,51.68
2023-05-05T07:36:52.833Z,51.42
2023-05-05T07:39:22.080Z,50.86
2023-05-05T07:41:48.712Z,50.50
2023-05-05T07:44:16.123Z,50.75
2023-05-05T07:46:44.766Z,50.59
2023-05-05T07:49:12.177Z,50.19
2023-05-05T07:51:39.209Z,49.20
2023-05-05T07:54:06.132Z,49.09
2023-05-05T07:56:33.148Z,48.45
2023-05-05T07:58:59.950Z,48.82
2023-05-05T08:01:27.677Z,48.49
2023-05-05T08:03:55.159Z,48.89
2023-05-05T08:06:23.169Z,47.60
2023-05-05T08:08:50.143Z,47.26
2023-05-05T08:11:17.462Z,47.31
2023-05-05T08:13:44.309Z,46.88
2023-05-05T08:16:12.199Z,47.35
2023-05-05T08:18:39.320Z,46.53
2023-05-05T08:21:08.203Z,46.99
2023-05-05T08:23:36.163Z,46.21
2023-05-05T08:26:07.133Z,45.76
2023-05-05T08:28:36.931Z,45.53
2023-05-05T08:31:04.512Z,45.49
2023-05-05T08:33:32.254Z,45.42
2023-05-05T08:35:59.184Z,44.60
2023-05-05T08:38:25.946Z,44.66
2023-05-05T08:40:53.517Z,44.86
2023-05-05T08:43:23.207Z,44.86
2023-05-05T08:45:53.431Z,44.74
2023-05-05T08:48:21.778Z,44.66
2023-05-05T08:50:55.906Z,43.76
2023-05-05T08:53:33.149Z,43.17
2023-05-05T08:56:01.111Z,42.11
2023-05-05T08:58:29.038Z,42.12
2023-05-05T09:00:56.904Z,42.94
2023-05-05T09:03:24.189Z,42.67
2023-05-05T09:05:51.243Z,42.47
2023-05-05T09:08:17.948Z,42.45
2023-05-05T09:10:44.882Z,42.12
2023-05-05T09:13:19.047Z,42.24
2023-05-05T09:15:45.932Z,42.00
2023-05-05T09:18:13.178Z,41.77
2023-05-05T09:20:41.066Z,40.89
2023-05-05T09:23:13.515Z,40.71
2023-05-05T09:25:41.882Z,40.21
2023-05-05T09:28:10.822Z,39.95
2023-05-05T09:30:39.005Z,40.11
2023-05-05T09:33:06.301Z,40.38
2023-05-05T09:35:49.966Z,40.17
2023-05-05T09:38:17.654Z,39.19
2023-05-05T09:40:49.538Z,38.99
2023-05-05T09:43:17.595Z,38.56
2023-05-05T09:45:44.647Z,39.38
2023-05-05T09:48:29.452Z,38.60
2023-05-05T09:50:57.566Z,38.78
2023-05-05T09:53:25.542Z,38.95
2023-05-05T09:55:56.827Z,38.63
2023-05-05T09:58:26.060Z,38.79
2023-05-05T10:00:54.066Z,37.64
2023-05-05T10:03:21.041Z,37.64
2023-05-05T10:05:48.070Z,37.59
2023-05-05T10:08:14.802Z,37.69
2023-05-05T10:10:50.319Z,37.46
2023-05-05T10:13:19.286Z,37.75
2023-05-05T10:15:47.186Z,37.07
2023-05-05T10:18:22.732Z,37.14
2023-05-05T10:20:57.350Z,37.27
2023-05-05T10:23:28.310Z,36.02
2023-05-05T10:26:02.648Z,35.81
2023-05-05T10:28:35.009Z,35.52
2023-05-05T10:31:12.893Z,35.98
2023-05-05T10:34:03.905Z,37.05
2023-05-05T10:36:32.515Z,35.79
2023-05-05T10:39:00.192Z,35.32
2023-05-05T10:41:27.206Z,36.36
2023-05-05T10:43:57.427Z,34.97
2023-05-05T10:46:26.959Z,35.79
2023-05-05T10:49:02.960Z,35.18
2023-05-05T10:51:44.334Z,34.79
2023-05-05T10:54:30.268Z,35.03
2023-05-05T10:57:02.611Z,34.72
2023-05-05T10:59:38.467Z,34.82
2023-05-05T11:02:23.946Z,35.62
2023-05-05T11:05:15.364Z,34.72
2023-05-05T11:07:44.092Z,34.08
2023-05-05T11:10:13.312Z,34.88
2023-05-05T11:12:52.161Z,35.34
2023-05-05T11:15:31.230Z,34.91
2023-05-05T11:17:59.801Z,34.31
2023-05-05T11:20:36.142Z,34.35
2023-05-05T11:23:02.832Z,34.31
2023-05-05T11:25:35.896Z,33.63
2023-05-05T11:28:06.921Z,33.93
2023-05-05T11:30:33.969Z,33.04
2023-05-05T11:33:23.885Z,33.48
2023-05-05T11:36:01.320Z,33.36
2023-05-05T11:39:10.825Z,33.09
2023-05-05T11:42:10.991Z,33.26
2023-05-05T11:44:37.992Z,33.28
2023-05-05T11:47:04.848Z,34.42
2023-05-05T11:49:32.439Z,34.52
2023-05-05T11:52:04.636Z,33.64
2023-05-05T11:54:32.114Z,34.20
2023-05-05T11:57:02.382Z,33.40
2023-05-05T11:59:30.165Z,33.10
2023-05-05T12:01:56.974Z,33.21
2023-05-05T12:04:24.135Z,32.70
2023-05-05T12:06:51.188Z,32.50
2023-05-05T12:09:20.267Z,32.07
2023-05-05T12:11:57.001Z,31.97
2023-05-05T12:14:25.590Z,31.73
2023-05-05T12:17:04.449Z,32.19
2023-05-05T12:19:33.617Z,31.98
2023-05-05T12:22:04.972Z,32.01
2023-05-05T12:24:31.813Z,32.39
2023-05-05T12:27:08.767Z,33.30
2023-05-05T12:29:35.516Z,32.77
2023-05-05T12:32:02.346Z,32.63
2023-05-05T12:34:29.377Z,32.74
2023-05-05T12:36:56.073Z,32.55
2023-05-05T12:39:22.771Z,32.35
2023-05-05T12:41:49.810Z,32.92
2023-05-05T12:44:17.889Z,32.56
2023-05-05T12:46:48.728Z,33.12
2023-05-05T12:49:17.628Z,33.60
2023-05-05T12:51:55.415Z,32.67
2023-05-05T12:54:25.254Z,32.82
2023-05-05T12:56:51.944Z,32.62
2023-05-05T12:59:21.397Z,32.79
2023-05-05T13:02:01.693Z,33.15
2023-05-05T13:04:28.710Z,32.94
2023-05-05T13:07:15.212Z,32.70
2023-05-05T13:09:42.569Z,32.21
2023-05-05T13:12:12.303Z,33.36
2023-05-05T13:14:39.995Z,32.78
2023-05-05T13:17:07.105Z,32.69
2023-05-05T13:19:35.911Z,32.34
2023-05-05T13:22:02.556Z,32.02
2023-05-05T13:24:42.796Z,32.26
2023-05-05T13:27:13.836Z,32.96
2023-05-05T13:29:41.752Z,32.75
2023-05-05T13:32:08.435Z,32.32
2023-05-05T13:34:35.462Z,32.43
2023-05-05T13:37:02.104Z,32.15
2023-05-05T13:39:28.691Z,32.64
2023-05-05T13:41:55.624Z,33.23
2023-05-05T13:44:22.344Z,32.98
2023-05-05T13:46:49.183Z,32.98
2023-05-05T13:49:15.923Z,32.47
2023-05-05T13:51:42.705Z,33.07
2023-05-05T13:54:09.911Z,32.12
2023-05-05T13:56:37.197Z,31.98
2023-05-05T13:59:04.005Z,31.68
2023-05-05T14:01:30.907Z,31.45
2023-05-05T14:03:58.487Z,31.49
2023-05-05T14:06:26.215Z,31.71
2023-05-05T14:08:53.255Z,31.67
2023-05-05T14:11:20.831Z,31.59
2023-05-05T14:13:48.183Z,31.20
2023-05-05T14:16:15.068Z,31.11
2023-05-05T14:18:41.875Z,31.38
2023-05-05T14:21:08.590Z,31.69
2023-05-05T14:23:35.616Z,31.58
2023-05-05T14:26:02.926Z,31.72
2023-05-05T14:28:29.658Z,31.98
2023-05-05T14:30:56.567Z,31.44
2023-05-05T14:33:23.248Z,31.04
2023-05-05T14:35:49.913Z,31.44
2023-05-05T14:38:16.570Z,31.85
2023-05-05T14:40:43.326Z,31.72
2023-05-05T14:43:12.544Z,32.08
2023-05-05T14:45:39.428Z,32.13
2023-05-05T14:48:06.135Z,32.02
2023-05-05T14:50:32.827Z,32.07
2023-05-05T14:52:59.521Z,32.15
2023-05-05T14:55:26.554Z,31.37
2023-05-05T14:57:53.189Z,31.71
2023-05-05T15:00:19.952Z,31.98
2023-05-05T15:02:48.403Z,32.05
2023-05-05T15:05:15.607Z,31.42
2023-05-05T15:07:42.404Z,31.78
2023-05-05T15:10:09.623Z,32.66
2023-05-05T15:12:36.446Z,32.30
2023-05-05T15:15:03.374Z,32.51
2023-05-05T15:17:31.731Z,32.37
2023-05-05T15:19:58.584Z,32.55
2023-05-05T15:22:25.263Z,32.89
2023-05-05T15:24:51.855Z,32.81
2023-05-05T15:27:18.654Z,32.72
2023-05-05T15:29:45.294Z,32.64
2023-05-05T15:32:12.121Z,32.80
2023-05-05T15:34:38.872Z,33.14
2023-05-05T15:37:05.523Z,33.51
2023-05-05T15:39:32.183Z,33.70
2023-05-05T15:42:03.793Z,34.00
2023-05-05T15:44:31.818Z,33.79
2023-05-05T15:46:58.787Z,33.79
2023-05-05T15:49:27.572Z,33.51
2023-05-05T15:51:54.555Z,33.65
2023-05-05T15:54:21.333Z,33.56
2023-05-05T15:56:47.903Z,33.80
2023-05-05T15:59:14.597Z,33.83
2023-05-05T16:01:41.783Z,33.99
2023-05-05T16:04:08.509Z,34.15
2023-05-05T16:06:35.281Z,34.30
2023-05-05T16:09:01.890Z,34.55
2023-05-05T16:11:28.588Z,34.80
2023-05-05T16:13:55.422Z,35.14
2023-05-05T16:16:22.163Z,35.52
2023-05-05T16:18:48.924Z,35.77
2023-05-05T16:21:15.755Z,35.58
2023-05-05T16:23:42.500Z,35.61
2023-05-05T16:26:09.157Z,35.52
2023-05-05T16:28:36.051Z,35.90
2023-05-05T16:31:02.663Z,35.83
2023-05-05T16:33:29.746Z,35.80
2023-05-05T16:35:56.600Z,35.97
2023-05-05T16:38:23.296Z,36.16
2023-05-05T16:40:49.902Z,35.95
2023-05-05T16:43:16.597Z,36.00
2023-05-05T16:45:43.648Z,35.97
2023-05-05T16:48:10.536Z,36.13
2023-05-05T16:50:37.192Z,36.04
2023-05-05T16:53:03.812Z,36.10
2023-05-05T16:55:30.575Z,36.07
2023-05-05T16:57:57.167Z,36.21
2023-05-05T17:00:23.882Z,36.02
2023-05-05T17:02:50.598Z,36.14
2023-05-05T17:05:17.770Z,36.29
2023-05-05T17:07:44.835Z,36.34
2023-05-05T17:10:11.552Z,36.39
2023-05-05T17:12:38.317Z,36.48
2023-05-05T17:15:05.948Z,36.54
2023-05-05T17:17:32.564Z,36.62
2023-05-05T17:19:59.456Z,36.85
2023-05-05T17:22:26.443Z,37.15
2023-05-05T17:24:53.142Z,37.44
2023-05-05T17:27:19.746Z,37.81
2023-05-05T17:29:46.418Z,37.63
2023-05-05T17:32:13.087Z,37.89
2023-05-05T17:34:41.154Z,38.20
2023-05-05T17:37:09.164Z,38.12
2023-05-05T17:39:35.829Z,37.96
2023-05-05T17:42:02.563Z,38.00
2023-05-05T17:44:29.296Z,38.20
2023-05-05T17:46:55.941Z,38.18
2023-05-05T17:49:25.338Z,38.47
2023-05-05T17:51:52.117Z,38.58
2023-05-05T17:54:18.791Z,38.85
2023-05-05T17:56:45.412Z,39.13
2023-05-05T17:59:12.045Z,39.30
2023-05-05T18:01:38.718Z,39.44
2023-05-05T18:04:05.583Z,39.56
2023-05-05T18:06:32.297Z,39.65
2023-05-05T18:08:58.964Z,39.93
2023-05-05T18:11:28.006Z,40.07
2023-05-05T18:13:55.997Z,40.38
2023-05-05T18:16:22.748Z,40.69
2023-05-05T18:18:49.479Z,40.85
2023-05-05T18:21:16.147Z,41.39
2023-05-05T18:23:42.943Z,42.01
2023-05-05T18:26:09.674Z,42.64
2023-05-05T18:28:36.905Z,43.28
2023-05-05T18:31:03.576Z,43.87
2023-05-05T18:33:30.224Z,44.13
2023-05-05T18:35:57.814Z,44.73
2023-05-05T18:38:24.896Z,45.08
2023-05-05T18:40:51.589Z,45.33
2023-05-05T18:43:18.297Z,45.65
2023-05-05T18:45:45.376Z,45.87
2023-05-05T18:48:12.204Z,45.91
2023-05-05T18:50:38.915Z,46.32
2023-05-05T18:53:05.636Z,46.57
2023-05-05T18:55:32.332Z,46.71
2023-05-05T18:57:59.086Z,47.01
2023-05-05T19:00:25.915Z,47.15
2023-05-05T19:02:52.681Z,47.43
2023-05-05T19:05:19.430Z,47.53
2023-05-05T19:07:46.269Z,47.51
2023-05-05T19:10:13.252Z,47.83
2023-05-05T19:12:39.986Z,47.91
2023-05-05T19:15:07.707Z,48.16
2023-05-05T19:17:34.899Z,48.37
2023-05-05T19:20:03.108Z,48.64
2023-05-05T19:22:30.055Z,48.73
2023-05-05T19:24:56.726Z,48.72
2023-05-05T19:27:24.969Z,49.02
2023-05-05T19:29:52.823Z,49.26
2023-05-05T19:32:21.170Z,49.32
2023-05-05T19:34:48.393Z,49.89
2023-05-05T19:37:15.137Z,49.79
2023-05-05T19:39:45.875Z,49.96
2023-05-05T19:42:14.618Z,50.10
2023-05-05T19:44:46.976Z,50.93
2023-05-05T19:47:15.240Z,51.02
2023-05-05T19:49:42.133Z,51.14
2023-05-05T19:52:10.183Z,51.12
2023-05-05T19:54:37.692Z,51.21
2023-05-05T19:57:05.451Z,51.21
2023-05-05T19:59:32.365Z,51.41
2023-05-05T20:01:59.487Z,51.69
2023-05-05T20:04:26.405Z,52.02
2023-05-05T20:06:53.297Z,52.27
2023-05-05T20:09:19.986Z,52.31
2023-05-05T20:11:46.681Z,52.45
2023-05-05T20:14:13.316Z,52.79
2023-05-05T20:16:39.988Z,53.00
2023-05-05T20:19:06.722Z,53.25
2023-05-05T20:21:35.019Z,53.34
2023-05-05T20:24:01.781Z,53.59
2023-05-05T20:26:28.569Z,53.67
2023-05-05T20:28:55.312Z,53.87
2023-05-05T20:31:22.062Z,53.88
2023-05-05T20:33:48.774Z,54.03
2023-05-05T20:36:15.694Z,54.03
2023-05-05T20:38:43.319Z,54.24
2023-05-05T20:41:10.152Z,54.27
2023-05-05T20:43:37.266Z,54.32
2023-05-05T20:46:10.391Z,54.48
2023-05-05T20:48:42.400Z,54.49
2023-05-05T20:51:09.899Z,54.57
2023-05-05T20:53:36.558Z,54.72
2023-05-05T20:56:05.759Z,54.86
2023-05-05T20:58:33.176Z,55.03
2023-05-05T21:00:59.908Z,55.14
2023-05-05T21:03:27.068Z,55.26
2023-05-05T21:05:54.281Z,55.56
2023-05-05T21:08:21.254Z,55.75
2023-05-05T21:10:47.876Z,55.77
2023-05-05T21:13:14.667Z,55.83
2023-05-05T21:15:41.316Z,55.79
2023-05-05T21:18:07.986Z,55.91
2023-05-05T21:20:34.875Z,56.01
2023-05-05T21:23:01.611Z,56.09
2023-05-05T21:25:28.531Z,56.13
2023-05-05T21:27:55.212Z,56.00
2023-05-05T21:30:23.802Z,55.89
2023-05-05T21:32:51.458Z,55.93
2023-05-05T21:35:18.226Z,56.13
2023-05-05T21:37:44.967Z,56.33
2023-05-05T21:40:14.006Z,56.42
2023-05-05T21:42:42.058Z,56.45
2023-05-05T21:45:10.986Z,56.48
2023-05-05T21:47:37.578Z,56.63
2023-05-05T21:50:04.633Z,56.48
2023-05-05T21:52:31.215Z,56.55
2023-05-05T21:54:57.895Z,56.77
2023-05-05T21:57:24.622Z,56.85
2023-05-05T21:59:51.336Z,56.98
2023-05-05T22:02:18.123Z,57.12
2023-05-05T22:04:48.787Z,57.25
2023-05-05T22:07:15.575Z,57.37
2023-05-05T22:09:43.123Z,57.50
2023-05-05T22:12:09.897Z,57.49
2023-05-05T22:14:36.588Z,57.37
2023-05-05T22:17:03.285Z,57.29
2023-05-05T22:19:29.873Z,57.32
2023-05-05T22:21:58.706Z,57.06
2023-05-05T22:24:25.584Z,57.00
2023-05-05T22:26:52.431Z,56.86
2023-05-05T22:29:19.103Z,57.00
2023-05-05T22:31:45.919Z,57.02
2023-05-05T22:34:12.740Z,56.93
2023-05-05T22:36:39.385Z,56.97
2023-05-05T22:39:06.569Z,57.06
2023-05-05T22:41:33.228Z,56.98
2023-05-05T22:43:59.986Z,57.03
2023-05-05T22:46:26.720Z,57.18
2023-05-05T22:48:54.317Z,57.24
2023-05-05T22:51:21.108Z,57.37
2023-05-05T22:53:47.731Z,57.21
2023-05-05T22:56:14.409Z,57.13
2023-05-05T22:58:41.169Z,57.14
2023-05-05T23:01:08.157Z,57.17
2023-05-05T23:03:34.830Z,57.24
2023-05-05T23:06:01.514Z,57.12
2023-05-05T23:08:28.110Z,57.18
2023-05-05T23:10:56.695Z,57.28
2023-05-05T23:13:23.524Z,57.16
2023-05-05T23:15:50.186Z,57.25
2023-05-05T23:18:16.813Z,57.18
2023-05-05T23:20:44.328Z,57.20
2023-05-05T23:23:10.994Z,57.04
2023-05-05T23:25:37.605Z,57.30
2023-05-05T23:28:04.450Z,57.00
2023-05-05T23:30:31.191Z,57.24
2023-05-05T23:32:58.065Z,57.30
2023-05-05T23:35:24.902Z,57.18
2023-05-05T23:37:51.592Z,57.34
2023-05-05T23:40:18.228Z,57.26
2023-05-05T23:42:44.851Z,57.35
2023-05-05T23:45:11.786Z,57.29
2023-05-05T23:47:38.943Z,57.19
2023-05-05T23:50:06.692Z,57.28
2023-05-05T23:52:33.357Z,57.32
2023-05-05T23:54:59.995Z,57.44
2023-05-05T23:57:26.798Z,57.26
2023-05-05T23:59:53.426Z,57.44
